Wetterdaten: Woche 07.06.04 - 13.06.04 (KW24)
Datum Zeit Temperatur Luftfeuchte Luftdruck Regenmenge Wind Richtung Taupunkt Windchill
07.06.2004 00:00 11.0 C 91 % 1020.6 hPa 0.0 l/m 0.7 km/h (0 Bft) O 9.6 C 11.0 C
07.06.2004 01:00 10.2 C 92 % 1021.3 hPa 0.0 l/m 0.0 km/h (0 Bft) N 9.0 C 10.2 C
07.06.2004 02:00 9.6 C 95 % 1021.7 hPa 0.0 l/m 0.6 km/h (0 Bft) O 8.9 C 9.6 C
07.06.2004 03:00 9.2 C 97 % 1021.6 hPa 0.0 l/m 0.5 km/h (0 Bft) O 8.7 C 9.2 C
07.06.2004 04:00 8.6 C 99 % 1022.0 hPa 0.0 l/m 0.6 km/h (0 Bft) O 8.5 C 8.6 C
07.06.2004 05:00 7.9 C 100 % 1022.1 hPa 0.0 l/m 0.4 km/h (0 Bft) O-SO 7.9 C 7.9 C
07.06.2004 06:00 8.3 C 100 % 1022.1 hPa 0.0 l/m 0.2 km/h (0 Bft) O-SO 8.3 C 8.3 C
07.06.2004 07:00 9.9 C 100 % 1022.5 hPa 0.0 l/m 0.0 km/h (0 Bft) N 9.8 C 9.9 C
07.06.2004 08:00 12.2 C 88 % 1022.6 hPa 0.0 l/m 0.0 km/h (0 Bft) N 10.3 C 12.2 C
07.06.2004 09:00 15.0 C 71 % 1022.2 hPa 0.0 l/m 0.6 km/h (0 Bft) W-SW 9.8 C 15.0 C
07.06.2004 10:00 17.6 C 59 % 1021.8 hPa 0.0 l/m 1.8 km/h (1 Bft) NW 9.4 C 17.6 C
07.06.2004 11:00 19.8 C 55 % 1021.5 hPa 0.0 l/m 2.0 km/h (1 Bft) O-SO 10.6 C 19.8 C
07.06.2004 12:00 21.3 C 47 % 1021.3 hPa 0.0 l/m 2.3 km/h (1 Bft) W 9.6 C 21.3 C
07.06.2004 13:00 23.4 C 41 % 1021.1 hPa 0.0 l/m 2.2 km/h (1 Bft) NW 9.4 C 23.4 C
07.06.2004 14:00 25.1 C 36 % 1020.3 hPa 0.0 l/m 2.0 km/h (1 Bft) SO 8.9 C 25.1 C
07.06.2004 15:00 26.5 C 34 % 1019.6 hPa 0.0 l/m 1.6 km/h (1 Bft) N 9.2 C 26.5 C
07.06.2004 16:00 26.9 C 36 % 1019.6 hPa 0.0 l/m 1.6 km/h (1 Bft) NW 10.6 C 26.9 C
07.06.2004 17:00 27.3 C 34 % 1019.5 hPa 0.0 l/m 0.8 km/h (0 Bft) NW 9.8 C 27.3 C
07.06.2004 18:00 26.7 C 32 % 1019.6 hPa 0.0 l/m 1.7 km/h (1 Bft) NW 8.6 C 26.7 C
07.06.2004 19:00 25.6 C 34 % 1019.8 hPa 0.0 l/m 1.7 km/h (1 Bft) W-NW 8.3 C 25.6 C
07.06.2004 20:00 23.6 C 42 % 1020.0 hPa 0.0 l/m 0.0 km/h (0 Bft) N 9.8 C 23.6 C
07.06.2004 21:00 18.4 C 62 % 1020.7 hPa 0.0 l/m 4.2 km/h (1 Bft) O-SO 10.9 C 18.4 C
07.06.2004 22:00 15.8 C 74 % 1021.8 hPa 0.0 l/m 0.2 km/h (0 Bft) O-SO 11.0 C 15.8 C
07.06.2004 23:00 14.2 C 80 % 1022.3 hPa 0.0 l/m 0.3 km/h (0 Bft) O-SO 10.8 C 14.2 C
08.06.2004 00:00 13.3 C 86 % 1022.4 hPa 0.0 l/m 0.0 km/h (0 Bft) N 11.0 C 13.3 C
08.06.2004 01:00 12.7 C 89 % 1022.8 hPa 0.0 l/m 0.3 km/h (0 Bft) O-SO 10.9 C 12.7 C
08.06.2004 02:00 12.0 C 92 % 1023.3 hPa 0.0 l/m 0.0 km/h (0 Bft) N 10.8 C 12.0 C
08.06.2004 03:00 11.6 C 96 % 1023.7 hPa 0.0 l/m 0.0 km/h (0 Bft) N 11.0 C 11.6 C
08.06.2004 04:00 11.0 C 98 % 1023.8 hPa 0.0 l/m 0.0 km/h (0 Bft) N 10.7 C 11.0 C
08.06.2004 05:00 10.5 C 99 % 1023.8 hPa 0.0 l/m 0.0 km/h (0 Bft) N 10.3 C 10.5 C
08.06.2004 06:00 11.1 C 99 % 1024.5 hPa 0.0 l/m 0.0 km/h (0 Bft) N 11.0 C 11.1 C
08.06.2004 07:00 12.6 C 97 % 1024.6 hPa 0.0 l/m 0.0 km/h (0 Bft) N 12.2 C 12.6 C
08.06.2004 08:00 14.8 C 82 % 1024.3 hPa 0.0 l/m 0.0 km/h (0 Bft) N 11.8 C 14.8 C
08.06.2004 09:00 18.4 C 72 % 1023.8 hPa 0.0 l/m 6.2 km/h (2 Bft) O-SO 13.3 C 18.4 C
08.06.2004 10:00 21.0 C 61 % 1023.5 hPa 0.0 l/m 2.8 km/h (1 Bft) O-SO 13.1 C 21.0 C
08.06.2004 11:00 23.6 C 53 % 1022.6 hPa 0.0 l/m 4.3 km/h (1 Bft) O-SO 13.5 C 23.6 C
08.06.2004 12:00 26.1 C 46 % 1021.8 hPa 0.0 l/m 7.1 km/h (2 Bft) O-SO 13.5 C 26.1 C
08.06.2004 13:00 27.7 C 44 % 1021.6 hPa 0.0 l/m 5.1 km/h (1 Bft) O-SO 14.4 C 27.7 C
08.06.2004 14:00 29.4 C 37 % 1020.3 hPa 0.0 l/m 3.0 km/h (1 Bft) O-SO 13.3 C 29.4 C
08.06.2004 15:00 29.4 C 33 % 1020.3 hPa 0.0 l/m 4.7 km/h (1 Bft) O-SO 11.4 C 29.4 C
08.06.2004 16:00 26.3 C 43 % 1020.2 hPa 0.0 l/m 4.5 km/h (1 Bft) O-SO 12.7 C 26.3 C
08.06.2004 17:00 30.3 C 35 % 1019.2 hPa 0.0 l/m 1.6 km/h (1 Bft) O-SO 13.1 C 30.3 C
08.06.2004 18:00 31.0 C 29 % 1019.1 hPa 0.0 l/m 1.7 km/h (1 Bft) O-SO 11.0 C 31.0 C
08.06.2004 19:00 30.4 C 32 % 1019.2 hPa 0.0 l/m 3.0 km/h (1 Bft) O-SO 11.7 C 30.4 C
08.06.2004 20:00 26.8 C 45 % 1019.6 hPa 0.0 l/m 2.7 km/h (1 Bft) O-SO 13.9 C 26.8 C
08.06.2004 21:00 21.9 C 60 % 1020.2 hPa 0.0 l/m 4.2 km/h (1 Bft) O-SO 13.8 C 21.9 C
08.06.2004 22:00 18.6 C 73 % 1021.6 hPa 0.0 l/m 0.7 km/h (0 Bft) O-SO 13.6 C 18.6 C
08.06.2004 23:00 16.7 C 80 % 1022.0 hPa 0.0 l/m 2.6 km/h (1 Bft) O-SO 13.3 C 16.7 C
09.06.2004 00:00 15.5 C 84 % 1023.1 hPa 0.0 l/m 1.4 km/h (1 Bft) O-SO 12.8 C 15.5 C
09.06.2004 01:00 15.0 C 88 % 1023.2 hPa 0.0 l/m 1.6 km/h (1 Bft) O-SO 13.0 C 15.0 C
09.06.2004 02:00 14.4 C 91 % 1023.3 hPa 0.0 l/m 2.3 km/h (1 Bft) O-SO 13.0 C 14.4 C
09.06.2004 03:00 14.0 C 94 % 1023.3 hPa 0.0 l/m 0.2 km/h (0 Bft) O-SO 13.0 C 14.0 C
09.06.2004 04:00 13.3 C 96 % 1023.4 hPa 0.0 l/m 0.7 km/h (0 Bft) O-SO 12.7 C 13.3 C
09.06.2004 05:00 12.8 C 97 % 1024.3 hPa 0.0 l/m 0.1 km/h (0 Bft) O-SO 12.4 C 12.8 C
09.06.2004 06:00 13.1 C 99 % 1024.5 hPa 0.0 l/m 0.4 km/h (0 Bft) N 13.0 C 13.1 C
09.06.2004 07:00 14.8 C 98 % 1024.3 hPa 0.0 l/m 1.1 km/h (1 Bft) O-SO 14.5 C 14.8 C
09.06.2004 08:00 17.1 C 88 % 1024.1 hPa 0.0 l/m 0.9 km/h (0 Bft) O-SO 15.0 C 17.1 C
09.06.2004 09:00 20.0 C 70 % 1023.7 hPa 0.0 l/m 4.2 km/h (1 Bft) O-SO 14.4 C 20.0 C
09.06.2004 10:00 23.2 C 57 % 1023.2 hPa 0.0 l/m 8.2 km/h (2 Bft) O-SO 14.2 C 23.2 C
09.06.2004 11:00 25.8 C 50 % 1022.5 hPa 0.0 l/m 7.6 km/h (2 Bft) O-SO 14.7 C 25.8 C
09.06.2004 12:00 28.0 C 39 % 1021.5 hPa 0.0 l/m 3.6 km/h (1 Bft) W 12.8 C 28.0 C
09.06.2004 13:00 29.6 C 36 % 1021.3 hPa 0.0 l/m 4.1 km/h (1 Bft) NW 12.8 C 29.6 C
09.06.2004 14:00 31.0 C 31 % 1020.1 hPa 0.0 l/m 2.7 km/h (1 Bft) NW 11.9 C 31.0 C
09.06.2004 15:00 32.0 C 27 % 1020.0 hPa 0.0 l/m 4.7 km/h (1 Bft) NW 10.4 C 32.0 C
09.06.2004 16:00 32.2 C 29 % 1019.4 hPa 0.0 l/m 7.1 km/h (2 Bft) NW 11.9 C 32.2 C
09.06.2004 17:00 32.1 C 31 % 1019.0 hPa 0.0 l/m 4.3 km/h (1 Bft) NW 13.0 C 32.1 C
09.06.2004 18:00 32.0 C 36 % 1019.0 hPa 0.0 l/m 2.2 km/h (1 Bft) NW 14.9 C 32.0 C
09.06.2004 19:00 30.7 C 41 % 1019.1 hPa 0.0 l/m 2.5 km/h (1 Bft) W-NW 15.9 C 30.7 C
09.06.2004 20:00 27.8 C 51 % 1019.5 hPa 0.0 l/m 0.3 km/h (0 Bft) W 16.7 C 27.8 C
09.06.2004 21:00 22.4 C 69 % 1020.4 hPa 0.0 l/m 3.3 km/h (1 Bft) O-SO 16.3 C 22.4 C
09.06.2004 22:00 20.4 C 76 % 1021.5 hPa 0.0 l/m 4.0 km/h (1 Bft) O-SO 16.1 C 20.4 C
09.06.2004 23:00 19.0 C 80 % 1021.6 hPa 0.0 l/m 0.8 km/h (0 Bft) O-SO 15.5 C 19.0 C
10.06.2004 00:00 18.0 C 84 % 1022.3 hPa 0.0 l/m 1.3 km/h (1 Bft) O-SO 15.2 C 18.0 C
10.06.2004 01:00 17.3 C 85 % 1022.9 hPa 0.0 l/m 1.7 km/h (1 Bft) O-SO 14.7 C 17.3 C
10.06.2004 02:00 16.4 C 89 % 1023.0 hPa 0.0 l/m 0.0 km/h (0 Bft) N 14.6 C 16.4 C
10.06.2004 03:00 15.9 C 92 % 1023.1 hPa 0.0 l/m 1.3 km/h (1 Bft) O-SO 14.6 C 15.9 C
10.06.2004 04:00 15.6 C 94 % 1023.0 hPa 0.0 l/m 0.2 km/h (0 Bft) O-SO 14.6 C 15.6 C
10.06.2004 05:00 15.0 C 96 % 1022.9 hPa 0.0 l/m 0.0 km/h (0 Bft) N 14.4 C 15.0 C
10.06.2004 06:00 15.3 C 98 % 1023.2 hPa 0.0 l/m 0.0 km/h (0 Bft) N 14.9 C 15.3 C
10.06.2004 07:00 16.8 C 92 % 1023.0 hPa 0.0 l/m 0.0 km/h (0 Bft) N 15.3 C 16.8 C
10.06.2004 08:00 19.0 C 80 % 1022.7 hPa 0.0 l/m 1.2 km/h (1 Bft) SO 15.4 C 19.0 C
10.06.2004 09:00 22.0 C 64 % 1022.3 hPa 0.0 l/m 3.1 km/h (1 Bft) O-SO 14.9 C 22.0 C
10.06.2004 10:00 24.4 C 56 % 1021.7 hPa 0.0 l/m 8.0 km/h (2 Bft) O-SO 15.0 C 24.4 C
10.06.2004 11:00 26.5 C 49 % 1020.7 hPa 0.0 l/m 5.7 km/h (1 Bft) O-SO 15.0 C 26.5 C
10.06.2004 12:00 28.5 C 45 % 1020.4 hPa 0.0 l/m 8.7 km/h (2 Bft) O-SO 15.5 C 28.5 C
10.06.2004 13:00 29.8 C 37 % 1019.2 hPa 0.0 l/m 1.5 km/h (1 Bft) W-SW 13.3 C 29.8 C
10.06.2004 14:00 31.3 C 36 % 1018.4 hPa 0.0 l/m 2.6 km/h (1 Bft) NW 14.3 C 31.3 C
10.06.2004 15:00 32.3 C 31 % 1017.6 hPa 0.0 l/m 3.7 km/h (1 Bft) NW 12.7 C 32.3 C
10.06.2004 16:00 32.0 C 27 % 1016.9 hPa 0.0 l/m 6.0 km/h (2 Bft) NW 10.7 C 32.0 C
10.06.2004 17:00 30.9 C 33 % 1017.0 hPa 0.0 l/m 7.9 km/h (2 Bft) NW 12.9 C 30.9 C
10.06.2004 18:00 31.0 C 36 % 1017.0 hPa 0.0 l/m 10.8 km/h (2 Bft) NW 14.1 C 31.0 C
10.06.2004 19:00 30.1 C 43 % 1017.1 hPa 0.0 l/m 2.6 km/h (1 Bft) NW 16.0 C 30.1 C
10.06.2004 20:00 27.3 C 49 % 1017.5 hPa 0.0 l/m 0.3 km/h (0 Bft) S 15.4 C 27.3 C
10.06.2004 21:00 22.9 C 69 % 1018.4 hPa 0.0 l/m 5.7 km/h (1 Bft) O-SO 16.8 C 22.9 C
10.06.2004 22:00 20.9 C 75 % 1019.3 hPa 0.0 l/m 5.8 km/h (2 Bft) O-SO 16.2 C 20.9 C
10.06.2004 23:00 20.2 C 76 % 1019.5 hPa 0.0 l/m 4.6 km/h (1 Bft) O-SO 15.8 C 20.2 C
11.06.2004 00:00 21.2 C 67 % 1019.9 hPa 0.0 l/m 3.7 km/h (1 Bft) O 14.8 C 21.2 C
11.06.2004 01:00 20.1 C 67 % 1019.4 hPa 0.0 l/m 0.0 km/h (0 Bft) N 13.7 C 20.1 C
11.06.2004 02:00 18.9 C 66 % 1019.6 hPa 0.0 l/m 1.1 km/h (0 Bft) O 12.4 C 18.9 C
11.06.2004 03:00 16.8 C 81 % 1019.7 hPa 0.0 l/m 1.0 km/h (0 Bft) O 13.5 C 16.8 C
11.06.2004 04:00 16.1 C 86 % 1018.9 hPa 0.0 l/m 0.8 km/h (0 Bft) O 13.8 C 16.1 C
11.06.2004 05:00 15.5 C 89 % 1019.4 hPa 0.0 l/m 0.0 km/h (0 Bft) N 13.7 C 15.5 C
11.06.2004 06:00 15.8 C 91 % 1020.0 hPa 0.0 l/m 1.0 km/h (0 Bft) O 14.3 C 15.8 C
11.06.2004 07:00 17.3 C 86 % 1020.5 hPa 0.0 l/m 3.9 km/h (1 Bft) O-SO 14.9 C 17.3 C
11.06.2004 08:00 18.6 C 81 % 1021.0 hPa 0.0 l/m 1.1 km/h (0 Bft) SO 15.2 C 18.6 C
11.06.2004 09:00 19.4 C 79 % 1021.6 hPa 0.0 l/m 0.1 km/h (0 Bft) S-SW 15.6 C 19.4 C
11.06.2004 10:00 19.5 C 75 % 1021.6 hPa 0.0 l/m 5.9 km/h (2 Bft) NW 14.8 C 19.5 C
11.06.2004 11:00 19.0 C 84 % 1021.1 hPa 0.3 l/m 0.2 km/h (0 Bft) NW 16.1 C 19.0 C
11.06.2004 12:00 19.6 C 81 % 1020.5 hPa 0.0 l/m 0.3 km/h (0 Bft) N-NW 16.2 C 19.6 C
11.06.2004 13:00 19.9 C 78 % 1020.5 hPa 0.0 l/m 2.6 km/h (1 Bft) NW 16.0 C 19.9 C
11.06.2004 14:00 18.7 C 84 % 1020.8 hPa 7.6 l/m 9.8 km/h (2 Bft) NW 15.8 C 18.7 C
11.06.2004 15:00 17.6 C 98 % 1021.5 hPa 3.6 l/m 2.4 km/h (1 Bft) NW 17.2 C 17.6 C
11.06.2004 16:00 18.5 C 97 % 1020.7 hPa 0.0 l/m 2.4 km/h (1 Bft) O-SO 18.0 C 18.5 C
11.06.2004 17:00 18.7 C 96 % 1020.5 hPa 0.0 l/m 0.0 km/h (0 Bft) N 18.0 C 18.7 C
11.06.2004 18:00 18.0 C 97 % 1019.7 hPa 1.6 l/m 2.4 km/h (1 Bft) W 17.5 C 18.0 C
11.06.2004 19:00 17.6 C 99 % 1019.7 hPa 0.0 l/m 0.2 km/h (0 Bft) N 17.4 C 17.6 C
11.06.2004 20:00 17.1 C 98 % 1019.8 hPa 0.0 l/m 0.1 km/h (0 Bft) N 16.8 C 17.1 C
11.06.2004 21:00 16.5 C 99 % 1019.9 hPa 0.0 l/m 0.0 km/h (0 Bft) N 16.4 C 16.5 C
11.06.2004 22:00 15.8 C 100 % 1020.0 hPa 0.0 l/m 0.1 km/h (0 Bft) SO 15.8 C 15.8 C
11.06.2004 23:00 14.9 C 100 % 1020.9 hPa 0.0 l/m 0.4 km/h (0 Bft) O-SO 14.9 C 14.9 C
12.06.2004 00:00 15.4 C 100 % 1020.4 hPa 0.0 l/m 0.0 km/h (0 Bft) N 15.4 C 15.4 C
12.06.2004 01:00 15.4 C 100 % 1020.0 hPa 0.3 l/m 0.0 km/h (0 Bft) N 15.4 C 15.4 C
12.06.2004 02:00 15.6 C 100 % 1020.0 hPa 0.0 l/m 0.8 km/h (0 Bft) O-SO 15.6 C 15.6 C
12.06.2004 03:00 15.5 C 100 % 1020.0 hPa 0.3 l/m 0.2 km/h (0 Bft) N 15.5 C 15.5 C
12.06.2004 04:00 15.7 C 100 % 1020.0 hPa 0.0 l/m 0.2 km/h (0 Bft) S-SW 15.7 C 15.7 C
12.06.2004 05:00 15.6 C 100 % 1019.3 hPa 0.3 l/m 0.0 km/h (0 Bft) N 15.6 C 15.6 C
12.06.2004 06:00 15.5 C 100 % 1020.0 hPa 1.0 l/m 0.0 km/h (0 Bft) N 15.5 C 15.5 C
12.06.2004 07:00 15.7 C 100 % 1020.0 hPa 0.0 l/m 0.0 km/h (0 Bft) N 15.7 C 15.7 C
12.06.2004 08:00 16.2 C 100 % 1019.9 hPa 0.0 l/m 3.2 km/h (1 Bft) NW 16.2 C 16.2 C
12.06.2004 09:00 17.0 C 92 % 1019.8 hPa 0.0 l/m 16.0 km/h (3 Bft) NW 15.8 C 17.0 C
12.06.2004 10:00 18.0 C 78 % 1019.7 hPa 0.0 l/m 22.9 km/h (4 Bft) NW 14.0 C 18.0 C
12.06.2004 11:00 18.0 C 65 % 1019.7 hPa 0.0 l/m 26.1 km/h (4 Bft) NW 11.2 C 18.0 C
12.06.2004 12:00 18.8 C 53 % 1019.6 hPa 0.0 l/m 35.0 km/h (5 Bft) NW 9.0 C 18.8 C
12.06.2004 13:00 19.6 C 48 % 1019.5 hPa 0.0 l/m 31.1 km/h (5 Bft) NW 8.2 C 19.6 C
12.06.2004 14:00 19.8 C 41 % 1019.5 hPa 0.0 l/m 33.7 km/h (5 Bft) NW 6.1 C 19.8 C
12.06.2004 15:00 20.7 C 36 % 1019.3 hPa 0.0 l/m 29.7 km/h (5 Bft) NW 5.1 C 20.7 C
12.06.2004 16:00 21.4 C 37 % 1019.2 hPa 0.0 l/m 29.2 km/h (5 Bft) NW 6.1 C 21.4 C
12.06.2004 17:00 21.6 C 38 % 1019.2 hPa 0.0 l/m 26.5 km/h (4 Bft) NW 6.6 C 21.6 C
12.06.2004 18:00 20.1 C 40 % 1019.9 hPa 0.0 l/m 22.0 km/h (4 Bft) NW 6.1 C 20.1 C
12.06.2004 19:00 20.1 C 39 % 1020.5 hPa 0.0 l/m 18.6 km/h (3 Bft) NW 5.8 C 20.1 C
12.06.2004 20:00 19.3 C 42 % 1020.9 hPa 0.0 l/m 9.4 km/h (2 Bft) NW 5.9 C 19.3 C
12.06.2004 21:00 16.7 C 47 % 1022.0 hPa 0.0 l/m 0.8 km/h (0 Bft) N-NW 5.2 C 16.7 C
12.06.2004 22:00 14.5 C 60 % 1023.3 hPa 0.0 l/m 0.1 km/h (0 Bft) N 6.7 C 14.5 C
12.06.2004 23:00 12.7 C 74 % 1023.5 hPa 0.0 l/m 5.3 km/h (1 Bft) O 8.2 C 12.7 C
13.06.2004 00:00 12.5 C 80 % 1024.4 hPa 0.0 l/m 5.6 km/h (1 Bft) O-SO 9.1 C 12.5 C
13.06.2004 01:00 12.5 C 81 % 1024.6 hPa 0.0 l/m 4.2 km/h (1 Bft) O-SO 9.4 C 12.5 C
13.06.2004 02:00 12.4 C 84 % 1024.6 hPa 0.0 l/m 0.6 km/h (0 Bft) O-SO 9.9 C 12.4 C
13.06.2004 03:00 12.4 C 85 % 1024.6 hPa 0.0 l/m 2.8 km/h (1 Bft) O-SO 9.9 C 12.4 C
13.06.2004 04:00 12.5 C 85 % 1024.6 hPa 0.0 l/m 0.5 km/h (0 Bft) O-SO 10.0 C 12.5 C
13.06.2004 05:00 12.5 C 86 % 1024.6 hPa 0.0 l/m 0.0 km/h (0 Bft) N 10.2 C 12.5 C
13.06.2004 06:00 12.8 C 82 % 1024.5 hPa 0.0 l/m 0.1 km/h (0 Bft) N 9.8 C 12.8 C
13.06.2004 07:00 13.0 C 84 % 1025.4 hPa 0.0 l/m 0.0 km/h (0 Bft) NW 10.3 C 13.0 C
13.06.2004 08:00 13.3 C 79 % 1025.5 hPa 0.0 l/m 0.6 km/h (0 Bft) NW 9.8 C 13.3 C
13.06.2004 09:00 14.3 C 74 % 1025.4 hPa 0.0 l/m 0.5 km/h (0 Bft) O-SO 9.8 C 14.3 C
13.06.2004 10:00 15.4 C 67 % 1025.5 hPa 0.0 l/m 0.8 km/h (0 Bft) O-SO 9.3 C 15.4 C
13.06.2004 11:00 16.6 C 62 % 1025.6 hPa 0.0 l/m 3.4 km/h (1 Bft) O-SO 9.1 C 16.6 C
13.06.2004 12:00 16.0 C 57 % 1025.8 hPa 0.0 l/m 15.9 km/h (3 Bft) NW 7.4 C 16.0 C
13.06.2004 13:00 17.1 C 52 % 1025.6 hPa 0.0 l/m 8.6 km/h (2 Bft) NW 7.2 C 17.1 C
13.06.2004 14:00 17.7 C 52 % 1024.9 hPa 0.0 l/m 7.2 km/h (2 Bft) NW 7.7 C 17.7 C
13.06.2004 15:00 19.1 C 48 % 1024.6 hPa 0.0 l/m 8.9 km/h (2 Bft) NW 7.7 C 19.1 C
13.06.2004 16:00 17.2 C 62 % 1024.6 hPa 2.6 l/m 9.0 km/h (2 Bft) O-SO 9.6 C 17.2 C
13.06.2004 17:00 14.0 C 90 % 1025.4 hPa 4.5 l/m 3.9 km/h (1 Bft) O-SO 12.3 C 14.0 C
13.06.2004 18:00 14.6 C 89 % 1025.3 hPa 0.0 l/m 0.3 km/h (0 Bft) O-SO 12.8 C 14.6 C
13.06.2004 19:00 15.2 C 85 % 1025.9 hPa 0.0 l/m 0.4 km/h (0 Bft) O-SO 12.6 C 15.2 C
13.06.2004 20:00 13.7 C 93 % 1026.7 hPa 0.9 l/m 2.2 km/h (1 Bft) O-SO 12.6 C 13.7 C
13.06.2004 21:00 12.6 C 94 % 1027.6 hPa 0.9 l/m 2.6 km/h (1 Bft) NW 11.7 C 12.6 C
13.06.2004 22:00 11.9 C 98 % 1028.8 hPa 0.3 l/m 0.0 km/h (0 Bft) N 11.6 C 11.9 C
13.06.2004 23:00 12.1 C 100 % 1028.8 hPa 0.0 l/m 0.3 km/h (0 Bft) O 12.1 C 12.1 C
Min-Datum _ 07.06.04 09.06.04 10.06.04 - 07.06.04 - 12.06.04 07.06.04
_ Min-Zeit 05:32 15:29 15:56 - 00:02 - 15:59 05:32
Minimum _ 7.6 C 25 % 1016.8 hPa - 0.0 km/h (0 Bft) - 4.1 C 7.6 C
Max-Datum _ 09.06.04 07.06.04 13.06.04 11.06.04 12.06.04 - 11.06.04 09.06.04
_ Max-Zeit 16:50 03:29 22:32 14:59 13:41 - 16:44 16:50
Maximum _ 32.7 C 100 % 1028.9 hPa 7.6 l/m 52.4 km/h
NW (7 Bft)
- 18.3 C 32.7 C
Durchschnitt _ 19.0 C 71 % 1021.6 hPa #24.3 l/m 3.9 km/h (1 Bft) O-SO 12.4 C 19.0 C

Durchschnitt Minimum Temp.18.0 C
Durchschnitt Maximum Temp.20.0 C
© Kaiko 2004